sensor_id;sensor_type;location;lat;lon;timestamp;P1;durP1;ratioP1;P2;durP2;ratioP2
34902;SDS011;21114;44.840;0.214;2023-12-22T00:02:23;4.47;;;2.67;;
34902;SDS011;21114;44.840;0.214;2023-12-22T00:04:50;2.42;;;1.35;;
34902;SDS011;21114;44.840;0.214;2023-12-22T00:07:16;4.50;;;0.73;;
34902;SDS011;21114;44.840;0.214;2023-12-22T00:09:45;1.45;;;0.50;;
34902;SDS011;21114;44.840;0.214;2023-12-22T00:12:11;3.45;;;0.68;;
34902;SDS011;21114;44.840;0.214;2023-12-22T00:14:37;1.45;;;0.40;;
34902;SDS011;21114;44.840;0.214;2023-12-22T00:17:05;1.23;;;0.82;;
34902;SDS011;21114;44.840;0.214;2023-12-22T00:19:31;2.03;;;0.85;;
34902;SDS011;21114;44.840;0.214;2023-12-22T00:21:57;4.35;;;0.75;;
34902;SDS011;21114;44.840;0.214;2023-12-22T00:24:23;1.70;;;0.70;;
34902;SDS011;21114;44.840;0.214;2023-12-22T00:26:49;3.90;;;0.70;;
34902;SDS011;21114;44.840;0.214;2023-12-22T00:29:15;2.22;;;0.93;;
34902;SDS011;21114;44.840;0.214;2023-12-22T00:31:41;2.20;;;0.45;;
34902;SDS011;21114;44.840;0.214;2023-12-22T00:34:07;2.65;;;0.43;;
34902;SDS011;21114;44.840;0.214;2023-12-22T00:36:33;0.90;;;0.50;;
34902;SDS011;21114;44.840;0.214;2023-12-22T00:38:59;2.25;;;0.47;;
34902;SDS011;21114;44.840;0.214;2023-12-22T00:41:25;2.53;;;0.77;;
34902;SDS011;21114;44.840;0.214;2023-12-22T00:43:51;5.55;;;0.85;;
34902;SDS011;21114;44.840;0.214;2023-12-22T00:46:17;1.77;;;0.70;;
34902;SDS011;21114;44.840;0.214;2023-12-22T00:48:45;2.35;;;0.98;;
34902;SDS011;21114;44.840;0.214;2023-12-22T00:51:11;6.05;;;0.68;;
34902;SDS011;21114;44.840;0.214;2023-12-22T00:53:37;2.42;;;0.75;;
34902;SDS011;21114;44.840;0.214;2023-12-22T00:56:03;2.35;;;1.02;;
34902;SDS011;21114;44.840;0.214;2023-12-22T00:58:29;2.22;;;0.52;;
34902;SDS011;21114;44.840;0.214;2023-12-22T01:00:55;1.42;;;0.65;;
34902;SDS011;21114;44.840;0.214;2023-12-22T01:03:22;4.97;;;1.17;;
34902;SDS011;21114;44.840;0.214;2023-12-22T01:05:48;4.03;;;1.23;;
34902;SDS011;21114;44.840;0.214;2023-12-22T01:08:14;3.30;;;0.80;;
34902;SDS011;21114;44.840;0.214;2023-12-22T01:10:40;3.38;;;0.63;;
34902;SDS011;21114;44.840;0.214;2023-12-22T01:13:06;2.85;;;0.88;;
34902;SDS011;21114;44.840;0.214;2023-12-22T01:15:32;5.05;;;0.82;;
34902;SDS011;21114;44.840;0.214;2023-12-22T01:17:58;3.58;;;1.38;;
34902;SDS011;21114;44.840;0.214;2023-12-22T01:20:24;2.58;;;1.40;;
34902;SDS011;21114;44.840;0.214;2023-12-22T01:22:50;4.80;;;0.60;;
34902;SDS011;21114;44.840;0.214;2023-12-22T01:25:16;7.07;;;1.40;;
34902;SDS011;21114;44.840;0.214;2023-12-22T01:27:42;4.43;;;1.52;;
34902;SDS011;21114;44.840;0.214;2023-12-22T01:30:08;2.63;;;0.88;;
34902;SDS011;21114;44.840;0.214;2023-12-22T01:32:34;2.63;;;0.80;;
34902;SDS011;21114;44.840;0.214;2023-12-22T01:35:01;2.33;;;0.77;;
34902;SDS011;21114;44.840;0.214;2023-12-22T01:37:31;3.97;;;1.42;;
34902;SDS011;21114;44.840;0.214;2023-12-22T01:39:57;3.88;;;0.90;;
34902;SDS011;21114;44.840;0.214;2023-12-22T01:42:23;2.47;;;0.95;;
34902;SDS011;21114;44.840;0.214;2023-12-22T01:44:49;1.27;;;0.35;;
34902;SDS011;21114;44.840;0.214;2023-12-22T01:47:16;1.40;;;0.63;;
34902;SDS011;21114;44.840;0.214;2023-12-22T01:49:42;5.78;;;1.48;;
34902;SDS011;21114;44.840;0.214;2023-12-22T01:52:08;2.50;;;0.93;;
34902;SDS011;21114;44.840;0.214;2023-12-22T01:54:36;5.13;;;1.27;;
34902;SDS011;21114;44.840;0.214;2023-12-22T01:57:02;4.90;;;0.70;;
34902;SDS011;21114;44.840;0.214;2023-12-22T01:59:29;2.25;;;0.73;;
34902;SDS011;21114;44.840;0.214;2023-12-22T02:01:59;2.55;;;0.55;;
34902;SDS011;21114;44.840;0.214;2023-12-22T02:04:25;2.30;;;0.50;;
34902;SDS011;21114;44.840;0.214;2023-12-22T02:06:52;3.35;;;0.60;;
34902;SDS011;21114;44.840;0.214;2023-12-22T02:09:18;3.22;;;0.73;;
34902;SDS011;21114;44.840;0.214;2023-12-22T02:11:44;2.85;;;1.45;;
34902;SDS011;21114;44.840;0.214;2023-12-22T02:14:10;2.38;;;1.00;;
34902;SDS011;21114;44.840;0.214;2023-12-22T02:16:40;2.13;;;1.13;;
34902;SDS011;21114;44.840;0.214;2023-12-22T02:22:00;1.45;;;0.50;;
34902;SDS011;21114;44.840;0.214;2023-12-22T02:24:27;3.17;;;0.88;;
34902;SDS011;21114;44.840;0.214;2023-12-22T02:26:55;3.38;;;0.73;;
34902;SDS011;21114;44.840;0.214;2023-12-22T02:29:22;3.50;;;0.85;;
34902;SDS011;21114;44.840;0.214;2023-12-22T02:31:49;3.42;;;1.30;;
34902;SDS011;21114;44.840;0.214;2023-12-22T02:34:19;8.85;;;1.67;;
34902;SDS011;21114;44.840;0.214;2023-12-22T02:36:45;7.32;;;3.97;;
34902;SDS011;21114;44.840;0.214;2023-12-22T02:39:13;7.50;;;1.48;;
34902;SDS011;21114;44.840;0.214;2023-12-22T02:41:39;5.50;;;1.40;;
34902;SDS011;21114;44.840;0.214;2023-12-22T02:44:06;4.20;;;2.25;;
34902;SDS011;21114;44.840;0.214;2023-12-22T02:46:33;6.28;;;2.47;;
34902;SDS011;21114;44.840;0.214;2023-12-22T02:48:59;6.65;;;2.38;;
34902;SDS011;21114;44.840;0.214;2023-12-22T02:51:25;7.85;;;1.92;;
34902;SDS011;21114;44.840;0.214;2023-12-22T02:53:51;6.78;;;1.40;;
34902;SDS011;21114;44.840;0.214;2023-12-22T02:56:17;5.72;;;1.52;;
34902;SDS011;21114;44.840;0.214;2023-12-22T02:58:43;12.32;;;2.33;;
34902;SDS011;21114;44.840;0.214;2023-12-22T03:01:09;7.05;;;1.67;;
34902;SDS011;21114;44.840;0.214;2023-12-22T03:03:35;4.32;;;1.17;;
34902;SDS011;21114;44.840;0.214;2023-12-22T03:06:01;9.95;;;2.35;;
34902;SDS011;21114;44.840;0.214;2023-12-22T03:08:27;9.35;;;1.60;;
34902;SDS011;21114;44.840;0.214;2023-12-22T03:10:53;9.75;;;1.88;;
34902;SDS011;21114;44.840;0.214;2023-12-22T03:13:19;7.53;;;1.60;;
34902;SDS011;21114;44.840;0.214;2023-12-22T03:15:45;9.88;;;3.25;;
34902;SDS011;21114;44.840;0.214;2023-12-22T03:18:12;7.10;;;2.15;;
34902;SDS011;21114;44.840;0.214;2023-12-22T03:20:38;8.20;;;3.00;;
34902;SDS011;21114;44.840;0.214;2023-12-22T03:23:04;8.15;;;1.70;;
34902;SDS011;21114;44.840;0.214;2023-12-22T03:25:30;11.27;;;3.25;;
34902;SDS011;21114;44.840;0.214;2023-12-22T03:27:56;8.30;;;2.03;;
34902;SDS011;21114;44.840;0.214;2023-12-22T03:30:22;12.82;;;2.67;;
34902;SDS011;21114;44.840;0.214;2023-12-22T03:32:48;4.07;;;1.95;;
34902;SDS011;21114;44.840;0.214;2023-12-22T03:35:14;11.98;;;2.53;;
34902;SDS011;21114;44.840;0.214;2023-12-22T03:37:40;8.93;;;1.83;;
34902;SDS011;21114;44.840;0.214;2023-12-22T03:40:06;6.45;;;2.10;;
34902;SDS011;21114;44.840;0.214;2023-12-22T03:42:32;6.20;;;2.05;;
34902;SDS011;21114;44.840;0.214;2023-12-22T03:44:58;7.10;;;2.05;;
34902;SDS011;21114;44.840;0.214;2023-12-22T03:47:24;10.77;;;4.03;;
34902;SDS011;21114;44.840;0.214;2023-12-22T03:49:50;8.50;;;2.88;;
34902;SDS011;21114;44.840;0.214;2023-12-22T03:52:16;6.55;;;2.78;;
34902;SDS011;21114;44.840;0.214;2023-12-22T03:54:42;6.68;;;2.13;;
34902;SDS011;21114;44.840;0.214;2023-12-22T03:57:08;3.58;;;1.60;;
34902;SDS011;21114;44.840;0.214;2023-12-22T03:59:34;6.70;;;1.45;;
34902;SDS011;21114;44.840;0.214;2023-12-22T04:02:00;8.75;;;2.55;;
34902;SDS011;21114;44.840;0.214;2023-12-22T04:04:29;4.97;;;1.60;;
34902;SDS011;21114;44.840;0.214;2023-12-22T04:06:55;8.57;;;2.30;;
34902;SDS011;21114;44.840;0.214;2023-12-22T04:09:21;4.15;;;1.70;;
34902;SDS011;21114;44.840;0.214;2023-12-22T04:11:47;9.80;;;1.40;;
34902;SDS011;21114;44.840;0.214;2023-12-22T04:14:13;10.32;;;2.72;;
34902;SDS011;21114;44.840;0.214;2023-12-22T04:16:40;10.43;;;3.20;;
34902;SDS011;21114;44.840;0.214;2023-12-22T04:19:06;10.98;;;2.55;;
34902;SDS011;21114;44.840;0.214;2023-12-22T04:21:32;7.20;;;1.90;;
34902;SDS011;21114;44.840;0.214;2023-12-22T04:23:58;5.38;;;1.92;;
34902;SDS011;21114;44.840;0.214;2023-12-22T04:26:24;11.18;;;2.55;;
34902;SDS011;21114;44.840;0.214;2023-12-22T04:28:50;6.63;;;1.60;;
34902;SDS011;21114;44.840;0.214;2023-12-22T04:31:16;7.20;;;2.50;;
34902;SDS011;21114;44.840;0.214;2023-12-22T04:33:42;8.88;;;3.10;;
34902;SDS011;21114;44.840;0.214;2023-12-22T04:36:08;8.45;;;1.38;;
34902;SDS011;21114;44.840;0.214;2023-12-22T04:38:34;15.32;;;3.80;;
34902;SDS011;21114;44.840;0.214;2023-12-22T04:41:00;8.65;;;1.77;;
34902;SDS011;21114;44.840;0.214;2023-12-22T04:43:26;10.23;;;2.53;;
34902;SDS011;21114;44.840;0.214;2023-12-22T04:45:52;8.52;;;2.50;;
34902;SDS011;21114;44.840;0.214;2023-12-22T04:48:18;3.25;;;2.05;;
34902;SDS011;21114;44.840;0.214;2023-12-22T04:50:44;9.27;;;2.63;;
34902;SDS011;21114;44.840;0.214;2023-12-22T04:53:10;11.75;;;3.47;;
34902;SDS011;21114;44.840;0.214;2023-12-22T04:55:36;12.50;;;2.67;;
34902;SDS011;21114;44.840;0.214;2023-12-22T04:58:02;4.80;;;1.70;;
34902;SDS011;21114;44.840;0.214;2023-12-22T05:00:28;7.18;;;3.50;;
34902;SDS011;21114;44.840;0.214;2023-12-22T05:02:54;8.20;;;2.28;;
34902;SDS011;21114;44.840;0.214;2023-12-22T05:05:20;8.95;;;1.67;;
34902;SDS011;21114;44.840;0.214;2023-12-22T05:07:46;8.02;;;2.38;;
34902;SDS011;21114;44.840;0.214;2023-12-22T05:10:13;10.27;;;2.65;;
34902;SDS011;21114;44.840;0.214;2023-12-22T05:12:39;9.50;;;2.15;;
34902;SDS011;21114;44.840;0.214;2023-12-22T05:15:05;6.97;;;2.13;;
34902;SDS011;21114;44.840;0.214;2023-12-22T05:17:31;6.85;;;1.95;;
34902;SDS011;21114;44.840;0.214;2023-12-22T05:19:58;8.07;;;1.73;;
34902;SDS011;21114;44.840;0.214;2023-12-22T05:22:24;10.73;;;3.20;;
34902;SDS011;21114;44.840;0.214;2023-12-22T05:24:51;6.32;;;2.65;;
34902;SDS011;21114;44.840;0.214;2023-12-22T05:27:17;10.90;;;2.97;;
34902;SDS011;21114;44.840;0.214;2023-12-22T05:29:43;7.68;;;1.77;;
34902;SDS011;21114;44.840;0.214;2023-12-22T05:32:09;8.10;;;2.53;;
34902;SDS011;21114;44.840;0.214;2023-12-22T05:34:36;5.10;;;2.58;;
34902;SDS011;21114;44.840;0.214;2023-12-22T05:37:02;9.20;;;2.15;;
34902;SDS011;21114;44.840;0.214;2023-12-22T05:39:28;5.88;;;1.48;;
34902;SDS011;21114;44.840;0.214;2023-12-22T05:41:54;10.60;;;3.15;;
34902;SDS011;21114;44.840;0.214;2023-12-22T05:44:20;12.57;;;3.97;;
34902;SDS011;21114;44.840;0.214;2023-12-22T05:46:47;7.78;;;2.08;;
34902;SDS011;21114;44.840;0.214;2023-12-22T05:49:13;9.57;;;1.95;;
34902;SDS011;21114;44.840;0.214;2023-12-22T05:51:39;8.70;;;2.45;;
34902;SDS011;21114;44.840;0.214;2023-12-22T05:54:09;7.35;;;1.80;;
34902;SDS011;21114;44.840;0.214;2023-12-22T05:56:38;4.28;;;1.73;;
34902;SDS011;21114;44.840;0.214;2023-12-22T05:59:04;6.20;;;2.08;;
34902;SDS011;21114;44.840;0.214;2023-12-22T06:01:30;10.95;;;3.38;;
34902;SDS011;21114;44.840;0.214;2023-12-22T06:03:56;19.25;;;5.85;;
34902;SDS011;21114;44.840;0.214;2023-12-22T06:06:22;11.68;;;4.88;;
34902;SDS011;21114;44.840;0.214;2023-12-22T06:08:49;8.23;;;2.80;;
34902;SDS011;21114;44.840;0.214;2023-12-22T06:11:15;7.88;;;2.30;;
34902;SDS011;21114;44.840;0.214;2023-12-22T06:13:41;10.90;;;2.55;;
34902;SDS011;21114;44.840;0.214;2023-12-22T06:16:10;11.48;;;4.10;;
34902;SDS011;21114;44.840;0.214;2023-12-22T06:18:37;8.52;;;4.55;;
34902;SDS011;21114;44.840;0.214;2023-12-22T06:21:03;13.70;;;5.78;;
34902;SDS011;21114;44.840;0.214;2023-12-22T06:23:29;11.18;;;2.72;;
34902;SDS011;21114;44.840;0.214;2023-12-22T06:25:57;9.75;;;2.50;;
34902;SDS011;21114;44.840;0.214;2023-12-22T06:28:23;9.07;;;2.63;;
34902;SDS011;21114;44.840;0.214;2023-12-22T06:30:49;11.43;;;2.70;;
34902;SDS011;21114;44.840;0.214;2023-12-22T06:33:15;8.40;;;3.63;;
34902;SDS011;21114;44.840;0.214;2023-12-22T06:35:40;13.82;;;3.80;;
34902;SDS011;21114;44.840;0.214;2023-12-22T06:38:07;8.30;;;1.98;;
34902;SDS011;21114;44.840;0.214;2023-12-22T06:40:36;17.15;;;5.40;;
34902;SDS011;21114;44.840;0.214;2023-12-22T06:43:04;10.68;;;3.53;;
34902;SDS011;21114;44.840;0.214;2023-12-22T06:45:30;8.13;;;3.50;;
34902;SDS011;21114;44.840;0.214;2023-12-22T06:47:56;14.32;;;4.00;;
34902;SDS011;21114;44.840;0.214;2023-12-22T06:50:22;12.55;;;3.63;;
34902;SDS011;21114;44.840;0.214;2023-12-22T06:52:48;12.73;;;3.35;;
34902;SDS011;21114;44.840;0.214;2023-12-22T06:55:16;8.93;;;2.22;;
34902;SDS011;21114;44.840;0.214;2023-12-22T06:57:42;10.35;;;2.72;;
34902;SDS011;21114;44.840;0.214;2023-12-22T07:00:08;10.98;;;2.88;;
34902;SDS011;21114;44.840;0.214;2023-12-22T07:02:34;13.80;;;2.85;;
34902;SDS011;21114;44.840;0.214;2023-12-22T07:07:36;11.23;;;3.40;;
34902;SDS011;21114;44.840;0.214;2023-12-22T07:10:02;12.23;;;3.28;;
34902;SDS011;21114;44.840;0.214;2023-12-22T07:12:28;6.60;;;2.00;;
34902;SDS011;21114;44.840;0.214;2023-12-22T07:14:54;7.80;;;2.30;;
34902;SDS011;21114;44.840;0.214;2023-12-22T07:17:20;7.78;;;2.95;;
34902;SDS011;21114;44.840;0.214;2023-12-22T07:19:46;10.90;;;3.50;;
34902;SDS011;21114;44.840;0.214;2023-12-22T07:22:12;10.65;;;2.67;;
34902;SDS011;21114;44.840;0.214;2023-12-22T07:24:40;7.05;;;3.13;;
34902;SDS011;21114;44.840;0.214;2023-12-22T07:27:06;8.27;;;3.42;;
34902;SDS011;21114;44.840;0.214;2023-12-22T07:29:32;9.15;;;2.45;;
34902;SDS011;21114;44.840;0.214;2023-12-22T07:31:58;8.32;;;2.00;;
34902;SDS011;21114;44.840;0.214;2023-12-22T07:34:24;5.80;;;2.70;;
34902;SDS011;21114;44.840;0.214;2023-12-22T07:36:50;6.35;;;3.03;;
34902;SDS011;21114;44.840;0.214;2023-12-22T07:39:18;9.52;;;2.28;;
34902;SDS011;21114;44.840;0.214;2023-12-22T07:41:44;10.40;;;3.72;;
34902;SDS011;21114;44.840;0.214;2023-12-22T07:44:10;9.77;;;2.80;;
34902;SDS011;21114;44.840;0.214;2023-12-22T07:46:36;5.18;;;1.52;;
34902;SDS011;21114;44.840;0.214;2023-12-22T07:49:02;13.65;;;3.10;;
34902;SDS011;21114;44.840;0.214;2023-12-22T07:51:28;5.38;;;1.95;;
34902;SDS011;21114;44.840;0.214;2023-12-22T07:53:54;8.50;;;3.40;;
34902;SDS011;21114;44.840;0.214;2023-12-22T07:56:21;10.63;;;3.42;;
34902;SDS011;21114;44.840;0.214;2023-12-22T07:58:47;7.88;;;4.43;;
34902;SDS011;21114;44.840;0.214;2023-12-22T08:01:13;9.95;;;6.15;;
34902;SDS011;21114;44.840;0.214;2023-12-22T08:03:40;6.20;;;2.00;;
34902;SDS011;21114;44.840;0.214;2023-12-22T08:06:06;5.75;;;3.20;;
34902;SDS011;21114;44.840;0.214;2023-12-22T08:08:33;7.07;;;3.30;;
34902;SDS011;21114;44.840;0.214;2023-12-22T08:10:59;5.90;;;2.60;;
34902;SDS011;21114;44.840;0.214;2023-12-22T08:13:25;5.95;;;1.85;;
34902;SDS011;21114;44.840;0.214;2023-12-22T08:15:52;6.85;;;3.28;;
34902;SDS011;21114;44.840;0.214;2023-12-22T08:18:18;4.22;;;1.50;;
34902;SDS011;21114;44.840;0.214;2023-12-22T08:20:44;5.07;;;3.45;;
34902;SDS011;21114;44.840;0.214;2023-12-22T08:23:13;7.05;;;3.35;;
34902;SDS011;21114;44.840;0.214;2023-12-22T08:25:39;6.78;;;2.13;;
34902;SDS011;21114;44.840;0.214;2023-12-22T08:28:06;6.50;;;2.38;;
34902;SDS011;21114;44.840;0.214;2023-12-22T08:30:32;3.25;;;1.30;;
34902;SDS011;21114;44.840;0.214;2023-12-22T08:32:58;6.70;;;2.38;;
34902;SDS011;21114;44.840;0.214;2023-12-22T08:35:24;6.65;;;2.92;;
34902;SDS011;21114;44.840;0.214;2023-12-22T08:37:50;7.28;;;1.90;;
34902;SDS011;21114;44.840;0.214;2023-12-22T08:40:16;4.05;;;2.20;;
34902;SDS011;21114;44.840;0.214;2023-12-22T08:42:43;7.10;;;2.10;;
34902;SDS011;21114;44.840;0.214;2023-12-22T08:45:09;5.35;;;1.45;;
34902;SDS011;21114;44.840;0.214;2023-12-22T08:47:35;8.35;;;2.40;;
34902;SDS011;21114;44.840;0.214;2023-12-22T08:50:01;6.00;;;1.73;;
34902;SDS011;21114;44.840;0.214;2023-12-22T08:52:29;6.07;;;1.38;;
34902;SDS011;21114;44.840;0.214;2023-12-22T08:54:55;6.40;;;1.80;;
34902;SDS011;21114;44.840;0.214;2023-12-22T08:57:21;5.10;;;1.00;;
34902;SDS011;21114;44.840;0.214;2023-12-22T08:59:47;5.18;;;1.40;;
34902;SDS011;21114;44.840;0.214;2023-12-22T09:02:13;8.52;;;2.13;;
34902;SDS011;21114;44.840;0.214;2023-12-22T09:04:39;3.67;;;1.58;;
34902;SDS011;21114;44.840;0.214;2023-12-22T09:07:05;7.47;;;1.98;;
34902;SDS011;21114;44.840;0.214;2023-12-22T09:09:31;6.63;;;1.75;;
34902;SDS011;21114;44.840;0.214;2023-12-22T09:11:57;3.92;;;1.23;;
34902;SDS011;21114;44.840;0.214;2023-12-22T09:14:23;4.53;;;1.48;;
34902;SDS011;21114;44.840;0.214;2023-12-22T09:16:49;5.90;;;1.48;;
34902;SDS011;21114;44.840;0.214;2023-12-22T09:19:15;3.80;;;1.38;;
34902;SDS011;21114;44.840;0.214;2023-12-22T09:21:41;4.60;;;1.73;;
34902;SDS011;21114;44.840;0.214;2023-12-22T09:24:09;4.70;;;1.30;;
34902;SDS011;21114;44.840;0.214;2023-12-22T09:26:37;3.70;;;1.35;;
34902;SDS011;21114;44.840;0.214;2023-12-22T09:29:05;3.17;;;1.30;;
34902;SDS011;21114;44.840;0.214;2023-12-22T09:31:31;2.45;;;0.85;;
34902;SDS011;21114;44.840;0.214;2023-12-22T09:33:57;4.55;;;1.33;;
34902;SDS011;21114;44.840;0.214;2023-12-22T09:36:23;3.28;;;1.45;;
34902;SDS011;21114;44.840;0.214;2023-12-22T09:38:49;2.47;;;1.00;;
34902;SDS011;21114;44.840;0.214;2023-12-22T09:41:15;5.75;;;1.15;;
34902;SDS011;21114;44.840;0.214;2023-12-22T09:43:41;6.93;;;1.50;;
34902;SDS011;21114;44.840;0.214;2023-12-22T09:46:08;4.53;;;2.65;;
34902;SDS011;21114;44.840;0.214;2023-12-22T09:48:34;3.90;;;1.52;;
34902;SDS011;21114;44.840;0.214;2023-12-22T09:51:04;1.67;;;1.02;;
34902;SDS011;21114;44.840;0.214;2023-12-22T09:53:31;6.05;;;1.38;;
34902;SDS011;21114;44.840;0.214;2023-12-22T09:55:58;2.55;;;0.90;;
34902;SDS011;21114;44.840;0.214;2023-12-22T09:58:25;5.32;;;2.42;;
34902;SDS011;21114;44.840;0.214;2023-12-22T10:00:51;1.45;;;0.70;;
34902;SDS011;21114;44.840;0.214;2023-12-22T10:03:17;3.30;;;0.80;;
34902;SDS011;21114;44.840;0.214;2023-12-22T10:05:44;6.38;;;1.27;;
34902;SDS011;21114;44.840;0.214;2023-12-22T10:08:10;3.58;;;1.08;;
34902;SDS011;21114;44.840;0.214;2023-12-22T10:10:40;3.83;;;0.93;;
34902;SDS011;21114;44.840;0.214;2023-12-22T10:13:09;5.20;;;2.13;;
34902;SDS011;21114;44.840;0.214;2023-12-22T10:15:41;6.43;;;1.30;;
34902;SDS011;21114;44.840;0.214;2023-12-22T10:18:08;2.30;;;1.23;;
34902;SDS011;21114;44.840;0.214;2023-12-22T10:20:36;1.70;;;1.00;;
34902;SDS011;21114;44.840;0.214;2023-12-22T10:23:02;2.42;;;0.88;;
34902;SDS011;21114;44.840;0.214;2023-12-22T10:25:29;2.30;;;0.88;;
34902;SDS011;21114;44.840;0.214;2023-12-22T10:27:57;2.30;;;0.60;;
34902;SDS011;21114;44.840;0.214;2023-12-22T10:30:23;2.08;;;1.20;;
34902;SDS011;21114;44.840;0.214;2023-12-22T10:32:50;4.82;;;1.40;;
34902;SDS011;21114;44.840;0.214;2023-12-22T10:35:20;2.55;;;0.68;;
34902;SDS011;21114;44.840;0.214;2023-12-22T10:37:46;6.10;;;1.02;;
34902;SDS011;21114;44.840;0.214;2023-12-22T10:40:12;2.92;;;0.95;;
34902;SDS011;21114;44.840;0.214;2023-12-22T10:42:41;2.25;;;0.75;;
34902;SDS011;21114;44.840;0.214;2023-12-22T10:45:08;3.10;;;1.00;;
34902;SDS011;21114;44.840;0.214;2023-12-22T10:47:34;4.90;;;1.95;;
34902;SDS011;21114;44.840;0.214;2023-12-22T10:50:03;2.17;;;1.27;;
34902;SDS011;21114;44.840;0.214;2023-12-22T10:52:33;1.50;;;0.73;;
34902;SDS011;21114;44.840;0.214;2023-12-22T10:54:59;2.90;;;0.90;;
34902;SDS011;21114;44.840;0.214;2023-12-22T10:57:35;2.75;;;0.93;;
34902;SDS011;21114;44.840;0.214;2023-12-22T11:00:03;4.60;;;1.40;;
34902;SDS011;21114;44.840;0.214;2023-12-22T11:02:34;4.28;;;1.10;;
34902;SDS011;21114;44.840;0.214;2023-12-22T11:05:01;4.95;;;1.13;;
34902;SDS011;21114;44.840;0.214;2023-12-22T11:07:29;3.58;;;0.93;;
34902;SDS011;21114;44.840;0.214;2023-12-22T11:10:04;3.97;;;1.00;;
34902;SDS011;21114;44.840;0.214;2023-12-22T11:12:36;2.35;;;1.50;;
34902;SDS011;21114;44.840;0.214;2023-12-22T11:15:02;1.20;;;0.63;;
34902;SDS011;21114;44.840;0.214;2023-12-22T11:17:31;2.45;;;1.35;;
34902;SDS011;21114;44.840;0.214;2023-12-22T11:20:06;2.90;;;0.95;;
34902;SDS011;21114;44.840;0.214;2023-12-22T11:22:34;2.47;;;1.30;;
34902;SDS011;21114;44.840;0.214;2023-12-22T11:25:02;3.90;;;0.95;;
34902;SDS011;21114;44.840;0.214;2023-12-22T11:27:28;4.63;;;1.17;;
34902;SDS011;21114;44.840;0.214;2023-12-22T11:29:54;3.13;;;1.65;;
34902;SDS011;21114;44.840;0.214;2023-12-22T11:32:21;2.03;;;1.20;;
34902;SDS011;21114;44.840;0.214;2023-12-22T11:34:47;3.55;;;1.65;;
34902;SDS011;21114;44.840;0.214;2023-12-22T11:37:15;5.43;;;1.23;;
34902;SDS011;21114;44.840;0.214;2023-12-22T11:39:41;4.60;;;1.42;;
34902;SDS011;21114;44.840;0.214;2023-12-22T11:42:25;4.15;;;1.05;;
34902;SDS011;21114;44.840;0.214;2023-12-22T11:44:53;3.33;;;1.10;;
34902;SDS011;21114;44.840;0.214;2023-12-22T11:47:22;6.30;;;2.60;;
34902;SDS011;21114;44.840;0.214;2023-12-22T11:49:51;2.38;;;1.00;;
34902;SDS011;21114;44.840;0.214;2023-12-22T11:52:17;2.15;;;1.00;;
34902;SDS011;21114;44.840;0.214;2023-12-22T11:54:53;3.13;;;1.42;;
34902;SDS011;21114;44.840;0.214;2023-12-22T11:59:58;4.47;;;1.25;;
34902;SDS011;21114;44.840;0.214;2023-12-22T12:02:32;2.15;;;1.27;;
34902;SDS011;21114;44.840;0.214;2023-12-22T12:04:59;6.55;;;1.42;;
34902;SDS011;21114;44.840;0.214;2023-12-22T12:07:41;1.80;;;0.50;;
34902;SDS011;21114;44.840;0.214;2023-12-22T12:10:36;0.85;;;0.50;;
34902;SDS011;21114;44.840;0.214;2023-12-22T12:13:07;0.70;;;0.40;;
34902;SDS011;21114;44.840;0.214;2023-12-22T12:15:33;0.73;;;0.50;;
34902;SDS011;21114;44.840;0.214;2023-12-22T12:18:03;1.15;;;0.40;;
34902;SDS011;21114;44.840;0.214;2023-12-22T12:20:29;1.92;;;1.55;;
34902;SDS011;21114;44.840;0.214;2023-12-22T12:22:58;1.98;;;0.50;;
34902;SDS011;21114;44.840;0.214;2023-12-22T12:25:28;1.70;;;0.52;;
34902;SDS011;21114;44.840;0.214;2023-12-22T12:28:07;1.35;;;0.40;;
34902;SDS011;21114;44.840;0.214;2023-12-22T12:30:37;4.53;;;0.90;;
34902;SDS011;21114;44.840;0.214;2023-12-22T12:33:06;0.80;;;0.40;;
34902;SDS011;21114;44.840;0.214;2023-12-22T12:35:32;1.20;;;0.65;;
34902;SDS011;21114;44.840;0.214;2023-12-22T12:37:59;1.30;;;0.60;;
34902;SDS011;21114;44.840;0.214;2023-12-22T12:40:25;4.18;;;1.42;;
34902;SDS011;21114;44.840;0.214;2023-12-22T12:42:57;4.97;;;0.80;;
34902;SDS011;21114;44.840;0.214;2023-12-22T12:45:23;5.10;;;1.27;;
34902;SDS011;21114;44.840;0.214;2023-12-22T12:47:56;4.65;;;0.50;;
34902;SDS011;21114;44.840;0.214;2023-12-22T12:50:23;1.08;;;0.50;;
34902;SDS011;21114;44.840;0.214;2023-12-22T12:52:52;2.95;;;0.75;;
34902;SDS011;21114;44.840;0.214;2023-12-22T12:55:19;2.65;;;0.60;;
34902;SDS011;21114;44.840;0.214;2023-12-22T12:57:52;2.55;;;0.50;;
34902;SDS011;21114;44.840;0.214;2023-12-22T13:00:25;2.60;;;0.80;;
34902;SDS011;21114;44.840;0.214;2023-12-22T13:03:00;2.55;;;0.60;;
34902;SDS011;21114;44.840;0.214;2023-12-22T13:05:30;2.40;;;0.35;;
34902;SDS011;21114;44.840;0.214;2023-12-22T13:08:07;0.98;;;0.38;;
34902;SDS011;21114;44.840;0.214;2023-12-22T13:10:38;5.38;;;0.90;;
34902;SDS011;21114;44.840;0.214;2023-12-22T13:13:07;1.23;;;0.40;;
34902;SDS011;21114;44.840;0.214;2023-12-22T13:15:33;0.85;;;0.40;;
34902;SDS011;21114;44.840;0.214;2023-12-22T13:17:59;2.03;;;0.55;;
34902;SDS011;21114;44.840;0.214;2023-12-22T13:20:32;1.58;;;0.73;;
34902;SDS011;21114;44.840;0.214;2023-12-22T13:22:59;2.65;;;0.55;;
34902;SDS011;21114;44.840;0.214;2023-12-22T13:25:26;2.05;;;0.65;;
34902;SDS011;21114;44.840;0.214;2023-12-22T13:27:52;1.42;;;0.30;;
34902;SDS011;21114;44.840;0.214;2023-12-22T13:30:37;0.93;;;0.40;;
34902;SDS011;21114;44.840;0.214;2023-12-22T13:33:05;1.75;;;0.40;;
34902;SDS011;21114;44.840;0.214;2023-12-22T13:35:32;1.55;;;0.63;;
34902;SDS011;21114;44.840;0.214;2023-12-22T13:37:59;1.63;;;0.40;;
34902;SDS011;21114;44.840;0.214;2023-12-22T13:40:25;0.88;;;0.40;;
34902;SDS011;21114;44.840;0.214;2023-12-22T13:42:55;2.53;;;1.08;;
34902;SDS011;21114;44.840;0.214;2023-12-22T13:45:26;1.02;;;0.47;;
34902;SDS011;21114;44.840;0.214;2023-12-22T13:47:55;1.58;;;0.30;;
34902;SDS011;21114;44.840;0.214;2023-12-22T13:50:21;1.35;;;0.47;;
34902;SDS011;21114;44.840;0.214;2023-12-22T13:52:50;0.98;;;0.20;;
34902;SDS011;21114;44.840;0.214;2023-12-22T13:55:20;0.35;;;0.20;;
34902;SDS011;21114;44.840;0.214;2023-12-22T13:57:50;1.13;;;0.32;;
34902;SDS011;21114;44.840;0.214;2023-12-22T14:00:24;1.25;;;0.40;;
34902;SDS011;21114;44.840;0.214;2023-12-22T14:02:53;3.05;;;1.38;;
34902;SDS011;21114;44.840;0.214;2023-12-22T14:05:20;3.05;;;0.73;;
34902;SDS011;21114;44.840;0.214;2023-12-22T14:07:46;4.05;;;1.40;;
34902;SDS011;21114;44.840;0.214;2023-12-22T14:10:13;3.45;;;0.60;;
34902;SDS011;21114;44.840;0.214;2023-12-22T14:12:39;0.70;;;0.30;;
34902;SDS011;21114;44.840;0.214;2023-12-22T14:15:06;2.40;;;0.40;;
34902;SDS011;21114;44.840;0.214;2023-12-22T14:17:32;1.33;;;0.82;;
34902;SDS011;21114;44.840;0.214;2023-12-22T14:19:58;2.97;;;0.73;;
34902;SDS011;21114;44.840;0.214;2023-12-22T14:22:26;9.32;;;1.60;;
34902;SDS011;21114;44.840;0.214;2023-12-22T14:24:52;1.65;;;0.85;;
34902;SDS011;21114;44.840;0.214;2023-12-22T14:27:19;5.05;;;0.90;;
34902;SDS011;21114;44.840;0.214;2023-12-22T14:29:45;4.75;;;1.52;;
34902;SDS011;21114;44.840;0.214;2023-12-22T14:32:11;6.43;;;1.98;;
34902;SDS011;21114;44.840;0.214;2023-12-22T14:34:39;4.65;;;1.92;;
34902;SDS011;21114;44.840;0.214;2023-12-22T14:37:05;4.63;;;1.73;;
34902;SDS011;21114;44.840;0.214;2023-12-22T14:39:31;7.03;;;2.67;;
34902;SDS011;21114;44.840;0.214;2023-12-22T14:42:00;14.02;;;4.85;;
34902;SDS011;21114;44.840;0.214;2023-12-22T14:44:28;9.73;;;2.42;;
34902;SDS011;21114;44.840;0.214;2023-12-22T14:46:54;8.80;;;2.72;;
34902;SDS011;21114;44.840;0.214;2023-12-22T14:49:20;11.10;;;2.35;;
34902;SDS011;21114;44.840;0.214;2023-12-22T14:51:48;10.10;;;2.55;;
34902;SDS011;21114;44.840;0.214;2023-12-22T14:54:19;7.63;;;3.63;;